Aviation Digital Data Service (ADDS)

Output produced by METARs form (2351 UTC 03 December 2016)
found at http://www.aviationweather.gov/adds/metars/
 
KILG 032251Z 31012KT 10SM OVC050 08/M01 A3017 RMK AO2 SLP214 T00831006
KILG 032326Z 0400/0424 30012KT P6SM BKN050 
     FM040200 30006KT P6SM SCT050 
     FM040900 30003KT P6SM BKN050 
     FM041300 33007KT P6SM FEW050